sensor_id;sensor_type;location;lat;lon;timestamp;temperature;humidity
11043;DHT22;5574;48.786;10.120;2022-12-01T00:01:48;3.90;99.90
11043;DHT22;5574;48.786;10.120;2022-12-01T00:04:14;3.80;99.90
11043;DHT22;5574;48.786;10.120;2022-12-01T00:06:41;3.80;99.90
11043;DHT22;5574;48.786;10.120;2022-12-01T00:09:08;3.90;99.90
11043;DHT22;5574;48.786;10.120;2022-12-01T00:11:52;3.80;99.90
11043;DHT22;5574;48.786;10.120;2022-12-01T00:14:21;3.80;99.90
11043;DHT22;5574;48.786;10.120;2022-12-01T00:16:47;3.80;99.90
11043;DHT22;5574;48.786;10.120;2022-12-01T00:19:14;3.80;99.90
11043;DHT22;5574;48.786;10.120;2022-12-01T00:21:42;3.80;99.90
11043;DHT22;5574;48.786;10.120;2022-12-01T00:24:09;3.80;99.90
11043;DHT22;5574;48.786;10.120;2022-12-01T00:26:37;3.80;99.90
11043;DHT22;5574;48.786;10.120;2022-12-01T00:29:04;3.80;99.90
11043;DHT22;5574;48.786;10.120;2022-12-01T00:31:32;3.80;99.90
11043;DHT22;5574;48.786;10.120;2022-12-01T00:33:59;3.80;99.90
11043;DHT22;5574;48.786;10.120;2022-12-01T00:36:25;3.90;99.90
11043;DHT22;5574;48.786;10.120;2022-12-01T00:38:54;3.90;99.90
11043;DHT22;5574;48.786;10.120;2022-12-01T00:41:21;3.90;99.90
11043;DHT22;5574;48.786;10.120;2022-12-01T00:43:49;4.00;99.90
11043;DHT22;5574;48.786;10.120;2022-12-01T00:46:16;4.00;99.90
11043;DHT22;5574;48.786;10.120;2022-12-01T00:48:44;3.90;99.90
11043;DHT22;5574;48.786;10.120;2022-12-01T00:51:10;3.90;99.90
11043;DHT22;5574;48.786;10.120;2022-12-01T00:53:37;3.90;99.90
11043;DHT22;5574;48.786;10.120;2022-12-01T00:56:04;3.90;99.90
11043;DHT22;5574;48.786;10.120;2022-12-01T00:58:31;3.90;99.90
11043;DHT22;5574;48.786;10.120;2022-12-01T01:00:59;3.90;99.90
11043;DHT22;5574;48.786;10.120;2022-12-01T01:03:26;3.90;99.90
11043;DHT22;5574;48.786;10.120;2022-12-01T01:05:55;3.90;99.90
11043;DHT22;5574;48.786;10.120;2022-12-01T01:08:22;3.90;99.90
11043;DHT22;5574;48.786;10.120;2022-12-01T01:10:48;3.80;99.90
11043;DHT22;5574;48.786;10.120;2022-12-01T01:13:15;3.80;99.90
11043;DHT22;5574;48.786;10.120;2022-12-01T01:15:42;3.80;99.90
11043;DHT22;5574;48.786;10.120;2022-12-01T01:18:10;3.80;99.90
11043;DHT22;5574;48.786;10.120;2022-12-01T01:20:36;3.90;99.90
11043;DHT22;5574;48.786;10.120;2022-12-01T01:23:05;3.80;99.90
11043;DHT22;5574;48.786;10.120;2022-12-01T01:25:32;3.80;99.90
11043;DHT22;5574;48.786;10.120;2022-12-01T01:27:59;3.90;99.90
11043;DHT22;5574;48.786;10.120;2022-12-01T01:30:25;3.90;99.90
11043;DHT22;5574;48.786;10.120;2022-12-01T01:32:52;3.90;99.90
11043;DHT22;5574;48.786;10.120;2022-12-01T01:35:19;3.90;99.90
11043;DHT22;5574;48.786;10.120;2022-12-01T01:37:46;3.90;99.90
11043;DHT22;5574;48.786;10.120;2022-12-01T01:40:16;3.90;99.90
11043;DHT22;5574;48.786;10.120;2022-12-01T01:42:42;3.90;99.90
11043;DHT22;5574;48.786;10.120;2022-12-01T01:45:18;3.90;99.90
11043;DHT22;5574;48.786;10.120;2022-12-01T01:47:46;3.90;99.90
11043;DHT22;5574;48.786;10.120;2022-12-01T01:50:15;3.90;99.90
11043;DHT22;5574;48.786;10.120;2022-12-01T01:52:45;3.80;99.90
11043;DHT22;5574;48.786;10.120;2022-12-01T01:55:13;3.80;99.90
11043;DHT22;5574;48.786;10.120;2022-12-01T01:57:43;3.80;99.90
11043;DHT22;5574;48.786;10.120;2022-12-01T02:00:13;3.80;99.90
11043;DHT22;5574;48.786;10.120;2022-12-01T02:02:40;3.80;99.90
11043;DHT22;5574;48.786;10.120;2022-12-01T02:05:11;3.80;99.90
11043;DHT22;5574;48.786;10.120;2022-12-01T02:07:40;3.70;99.90
11043;DHT22;5574;48.786;10.120;2022-12-01T02:10:10;3.80;99.90
11043;DHT22;5574;48.786;10.120;2022-12-01T02:12:52;3.70;99.90
11043;DHT22;5574;48.786;10.120;2022-12-01T02:15:25;3.80;99.90
11043;DHT22;5574;48.786;10.120;2022-12-01T02:18:02;3.80;99.90
11043;DHT22;5574;48.786;10.120;2022-12-01T02:26:35;3.90;99.90
11043;DHT22;5574;48.786;10.120;2022-12-01T02:29:17;3.90;99.90
11043;DHT22;5574;48.786;10.120;2022-12-01T02:31:55;3.90;99.90
11043;DHT22;5574;48.786;10.120;2022-12-01T02:34:28;3.90;99.90
11043;DHT22;5574;48.786;10.120;2022-12-01T02:36:59;4.00;99.90
11043;DHT22;5574;48.786;10.120;2022-12-01T02:39:32;4.00;99.90
11043;DHT22;5574;48.786;10.120;2022-12-01T02:42:03;4.00;99.90
11043;DHT22;5574;48.786;10.120;2022-12-01T02:44:34;4.00;99.90
11043;DHT22;5574;48.786;10.120;2022-12-01T02:47:08;4.00;99.90
11043;DHT22;5574;48.786;10.120;2022-12-01T02:49:40;4.00;99.90
11043;DHT22;5574;48.786;10.120;2022-12-01T02:52:10;4.00;99.90
11043;DHT22;5574;48.786;10.120;2022-12-01T02:54:37;4.00;99.90
11043;DHT22;5574;48.786;10.120;2022-12-01T02:57:05;4.00;99.90
11043;DHT22;5574;48.786;10.120;2022-12-01T02:59:31;4.00;99.90
11043;DHT22;5574;48.786;10.120;2022-12-01T03:02:06;4.00;99.90
11043;DHT22;5574;48.786;10.120;2022-12-01T03:04:49;4.00;99.90
11043;DHT22;5574;48.786;10.120;2022-12-01T03:07:41;4.00;99.90
11043;DHT22;5574;48.786;10.120;2022-12-01T03:10:17;4.00;99.90
11043;DHT22;5574;48.786;10.120;2022-12-01T03:12:53;3.90;99.90
11043;DHT22;5574;48.786;10.120;2022-12-01T03:15:29;3.80;99.90
11043;DHT22;5574;48.786;10.120;2022-12-01T03:18:08;3.80;99.90
11043;DHT22;5574;48.786;10.120;2022-12-01T03:20:43;3.70;99.90
11043;DHT22;5574;48.786;10.120;2022-12-01T03:23:17;3.70;99.90
11043;DHT22;5574;48.786;10.120;2022-12-01T03:25:48;3.70;99.90
11043;DHT22;5574;48.786;10.120;2022-12-01T03:28:19;3.70;99.90
11043;DHT22;5574;48.786;10.120;2022-12-01T03:30:49;3.60;99.90
11043;DHT22;5574;48.786;10.120;2022-12-01T03:33:21;3.60;99.90
11043;DHT22;5574;48.786;10.120;2022-12-01T03:35:53;3.60;99.90
11043;DHT22;5574;48.786;10.120;2022-12-01T03:38:23;3.60;99.90
11043;DHT22;5574;48.786;10.120;2022-12-01T03:40:53;3.60;99.90
11043;DHT22;5574;48.786;10.120;2022-12-01T03:43:25;3.60;99.90
11043;DHT22;5574;48.786;10.120;2022-12-01T03:45:57;3.60;99.90
11043;DHT22;5574;48.786;10.120;2022-12-01T03:48:26;3.60;99.90
11043;DHT22;5574;48.786;10.120;2022-12-01T03:51:01;3.60;99.90
11043;DHT22;5574;48.786;10.120;2022-12-01T03:53:35;3.60;99.90
11043;DHT22;5574;48.786;10.120;2022-12-01T03:56:05;3.60;99.90
11043;DHT22;5574;48.786;10.120;2022-12-01T03:58:35;3.60;99.90
11043;DHT22;5574;48.786;10.120;2022-12-01T04:01:03;3.60;99.90
11043;DHT22;5574;48.786;10.120;2022-12-01T04:03:32;3.60;99.90
11043;DHT22;5574;48.786;10.120;2022-12-01T04:05:59;3.60;99.90
11043;DHT22;5574;48.786;10.120;2022-12-01T04:08:26;3.60;99.90
11043;DHT22;5574;48.786;10.120;2022-12-01T04:10:55;3.60;99.90
11043;DHT22;5574;48.786;10.120;2022-12-01T04:13:21;3.60;99.90
11043;DHT22;5574;48.786;10.120;2022-12-01T04:15:48;3.60;99.90
11043;DHT22;5574;48.786;10.120;2022-12-01T04:18:16;3.50;99.90
11043;DHT22;5574;48.786;10.120;2022-12-01T04:20:45;3.50;99.90
11043;DHT22;5574;48.786;10.120;2022-12-01T04:23:13;3.50;99.90
11043;DHT22;5574;48.786;10.120;2022-12-01T04:26:01;3.50;99.90
11043;DHT22;5574;48.786;10.120;2022-12-01T04:28:28;3.50;99.90
11043;DHT22;5574;48.786;10.120;2022-12-01T04:30:54;3.50;99.90
11043;DHT22;5574;48.786;10.120;2022-12-01T04:33:21;3.60;99.90
11043;DHT22;5574;48.786;10.120;2022-12-01T04:35:57;3.60;99.90
11043;DHT22;5574;48.786;10.120;2022-12-01T04:38:24;3.50;99.90
11043;DHT22;5574;48.786;10.120;2022-12-01T04:40:51;3.60;99.90
11043;DHT22;5574;48.786;10.120;2022-12-01T04:43:17;3.50;99.90
11043;DHT22;5574;48.786;10.120;2022-12-01T04:45:44;3.50;99.90
11043;DHT22;5574;48.786;10.120;2022-12-01T04:48:11;3.50;99.90
11043;DHT22;5574;48.786;10.120;2022-12-01T04:50:39;3.50;99.90
11043;DHT22;5574;48.786;10.120;2022-12-01T04:53:07;3.50;99.90
11043;DHT22;5574;48.786;10.120;2022-12-01T04:55:36;3.50;99.90
11043;DHT22;5574;48.786;10.120;2022-12-01T04:58:03;3.50;99.90
11043;DHT22;5574;48.786;10.120;2022-12-01T05:00:31;3.50;99.90
11043;DHT22;5574;48.786;10.120;2022-12-01T05:02:58;3.50;99.90
11043;DHT22;5574;48.786;10.120;2022-12-01T05:05:25;3.60;99.90
11043;DHT22;5574;48.786;10.120;2022-12-01T05:07:52;3.50;99.90
11043;DHT22;5574;48.786;10.120;2022-12-01T05:10:20;3.60;99.90
11043;DHT22;5574;48.786;10.120;2022-12-01T05:12:47;3.60;99.90
11043;DHT22;5574;48.786;10.120;2022-12-01T05:15:15;3.60;99.90
11043;DHT22;5574;48.786;10.120;2022-12-01T05:17:42;3.70;99.90
11043;DHT22;5574;48.786;10.120;2022-12-01T05:20:16;3.70;99.90
11043;DHT22;5574;48.786;10.120;2022-12-01T05:23:01;3.60;99.90
11043;DHT22;5574;48.786;10.120;2022-12-01T05:25:29;3.70;99.90
11043;DHT22;5574;48.786;10.120;2022-12-01T05:27:56;3.70;99.90
11043;DHT22;5574;48.786;10.120;2022-12-01T05:30:22;3.70;99.90
11043;DHT22;5574;48.786;10.120;2022-12-01T05:32:49;3.80;99.90
11043;DHT22;5574;48.786;10.120;2022-12-01T05:35:16;3.70;99.90
11043;DHT22;5574;48.786;10.120;2022-12-01T05:37:43;3.70;99.90
11043;DHT22;5574;48.786;10.120;2022-12-01T05:40:10;3.70;99.90
11043;DHT22;5574;48.786;10.120;2022-12-01T05:42:38;3.80;99.90
11043;DHT22;5574;48.786;10.120;2022-12-01T05:45:06;3.80;99.90
11043;DHT22;5574;48.786;10.120;2022-12-01T05:47:33;3.90;99.90
11043;DHT22;5574;48.786;10.120;2022-12-01T05:49:59;3.90;99.90
11043;DHT22;5574;48.786;10.120;2022-12-01T05:52:26;3.90;99.90
11043;DHT22;5574;48.786;10.120;2022-12-01T05:54:53;3.90;99.90
11043;DHT22;5574;48.786;10.120;2022-12-01T05:57:20;3.90;99.90
11043;DHT22;5574;48.786;10.120;2022-12-01T05:59:48;3.90;99.90
11043;DHT22;5574;48.786;10.120;2022-12-01T06:02:14;3.90;99.90
11043;DHT22;5574;48.786;10.120;2022-12-01T06:04:41;3.90;99.90
11043;DHT22;5574;48.786;10.120;2022-12-01T06:07:08;3.80;99.90
11043;DHT22;5574;48.786;10.120;2022-12-01T06:09:35;3.90;99.90
11043;DHT22;5574;48.786;10.120;2022-12-01T06:12:02;3.80;99.90
11043;DHT22;5574;48.786;10.120;2022-12-01T06:14:29;3.80;99.90
11043;DHT22;5574;48.786;10.120;2022-12-01T06:16:57;3.80;99.90
11043;DHT22;5574;48.786;10.120;2022-12-01T06:19:24;3.80;99.90
11043;DHT22;5574;48.786;10.120;2022-12-01T06:21:50;3.90;99.90
11043;DHT22;5574;48.786;10.120;2022-12-01T06:24:17;3.80;99.90
11043;DHT22;5574;48.786;10.120;2022-12-01T06:26:44;3.90;99.90
11043;DHT22;5574;48.786;10.120;2022-12-01T06:29:10;3.80;99.90
11043;DHT22;5574;48.786;10.120;2022-12-01T06:31:37;3.80;99.90
11043;DHT22;5574;48.786;10.120;2022-12-01T06:34:05;3.80;99.90
11043;DHT22;5574;48.786;10.120;2022-12-01T06:36:32;3.80;99.90
11043;DHT22;5574;48.786;10.120;2022-12-01T06:38:59;3.90;99.90
11043;DHT22;5574;48.786;10.120;2022-12-01T06:41:25;4.00;99.90
11043;DHT22;5574;48.786;10.120;2022-12-01T06:43:52;4.10;99.90
11043;DHT22;5574;48.786;10.120;2022-12-01T06:46:19;4.10;99.90
11043;DHT22;5574;48.786;10.120;2022-12-01T06:48:47;4.10;99.90
11043;DHT22;5574;48.786;10.120;2022-12-01T06:51:15;4.20;99.90
11043;DHT22;5574;48.786;10.120;2022-12-01T06:53:42;4.20;99.90
11043;DHT22;5574;48.786;10.120;2022-12-01T06:56:08;4.20;99.90
11043;DHT22;5574;48.786;10.120;2022-12-01T06:58:35;4.20;99.90
11043;DHT22;5574;48.786;10.120;2022-12-01T07:01:07;4.30;99.90
11043;DHT22;5574;48.786;10.120;2022-12-01T07:03:34;4.30;99.90
11043;DHT22;5574;48.786;10.120;2022-12-01T07:06:02;4.20;99.90
11043;DHT22;5574;48.786;10.120;2022-12-01T07:08:31;4.20;99.90
11043;DHT22;5574;48.786;10.120;2022-12-01T07:10:59;4.30;99.90
11043;DHT22;5574;48.786;10.120;2022-12-01T07:13:26;4.20;99.90
11043;DHT22;5574;48.786;10.120;2022-12-01T07:15:53;4.40;99.90
11043;DHT22;5574;48.786;10.120;2022-12-01T07:18:20;4.40;99.90
11043;DHT22;5574;48.786;10.120;2022-12-01T07:20:47;4.40;99.90
11043;DHT22;5574;48.786;10.120;2022-12-01T07:23:14;4.40;99.90
11043;DHT22;5574;48.786;10.120;2022-12-01T07:25:42;4.40;99.90
11043;DHT22;5574;48.786;10.120;2022-12-01T07:28:08;4.50;99.90
11043;DHT22;5574;48.786;10.120;2022-12-01T07:30:35;4.40;99.90
11043;DHT22;5574;48.786;10.120;2022-12-01T07:33:02;4.40;99.90
11043;DHT22;5574;48.786;10.120;2022-12-01T07:35:29;4.30;99.90
11043;DHT22;5574;48.786;10.120;2022-12-01T07:37:55;4.30;99.90
11043;DHT22;5574;48.786;10.120;2022-12-01T07:40:22;4.30;99.90
11043;DHT22;5574;48.786;10.120;2022-12-01T07:42:50;4.20;99.90
11043;DHT22;5574;48.786;10.120;2022-12-01T07:45:17;4.20;99.90
11043;DHT22;5574;48.786;10.120;2022-12-01T07:47:44;4.20;99.90
11043;DHT22;5574;48.786;10.120;2022-12-01T07:50:11;4.20;99.90
11043;DHT22;5574;48.786;10.120;2022-12-01T07:52:37;4.20;99.90
11043;DHT22;5574;48.786;10.120;2022-12-01T07:55:05;4.20;99.90
11043;DHT22;5574;48.786;10.120;2022-12-01T07:57:32;4.10;99.90
11043;DHT22;5574;48.786;10.120;2022-12-01T08:00:00;4.10;99.90
11043;DHT22;5574;48.786;10.120;2022-12-01T08:02:26;4.10;99.90
11043;DHT22;5574;48.786;10.120;2022-12-01T08:04:53;4.10;99.90
11043;DHT22;5574;48.786;10.120;2022-12-01T08:07:20;4.10;99.90
11043;DHT22;5574;48.786;10.120;2022-12-01T08:09:46;4.10;99.90
11043;DHT22;5574;48.786;10.120;2022-12-01T08:12:13;4.10;99.90
11043;DHT22;5574;48.786;10.120;2022-12-01T08:14:40;4.10;99.90
11043;DHT22;5574;48.786;10.120;2022-12-01T08:17:08;4.10;99.90
11043;DHT22;5574;48.786;10.120;2022-12-01T08:19:35;4.10;99.90
11043;DHT22;5574;48.786;10.120;2022-12-01T08:22:02;4.10;99.90
11043;DHT22;5574;48.786;10.120;2022-12-01T08:24:29;4.10;99.90
11043;DHT22;5574;48.786;10.120;2022-12-01T08:26:55;4.20;99.90
11043;DHT22;5574;48.786;10.120;2022-12-01T08:29:22;4.20;99.90
11043;DHT22;5574;48.786;10.120;2022-12-01T08:31:49;4.20;99.90
11043;DHT22;5574;48.786;10.120;2022-12-01T08:34:17;4.40;99.90
11043;DHT22;5574;48.786;10.120;2022-12-01T08:36:43;4.30;99.90
11043;DHT22;5574;48.786;10.120;2022-12-01T08:39:10;4.40;99.90
11043;DHT22;5574;48.786;10.120;2022-12-01T08:41:37;4.50;99.90
11043;DHT22;5574;48.786;10.120;2022-12-01T08:44:04;4.50;99.90
11043;DHT22;5574;48.786;10.120;2022-12-01T08:46:32;4.50;99.90
11043;DHT22;5574;48.786;10.120;2022-12-01T08:48:59;4.60;99.90
11043;DHT22;5574;48.786;10.120;2022-12-01T08:51:27;4.70;99.90
11043;DHT22;5574;48.786;10.120;2022-12-01T08:53:55;4.80;99.90
11043;DHT22;5574;48.786;10.120;2022-12-01T08:56:23;4.90;99.90
11043;DHT22;5574;48.786;10.120;2022-12-01T08:58:50;4.80;99.90
11043;DHT22;5574;48.786;10.120;2022-12-01T09:01:17;4.60;99.90
11043;DHT22;5574;48.786;10.120;2022-12-01T09:03:45;4.70;99.90
11043;DHT22;5574;48.786;10.120;2022-12-01T09:06:13;4.70;99.90
11043;DHT22;5574;48.786;10.120;2022-12-01T09:08:41;4.90;99.90
11043;DHT22;5574;48.786;10.120;2022-12-01T09:11:10;4.70;99.90
11043;DHT22;5574;48.786;10.120;2022-12-01T09:13:38;4.60;99.90
11043;DHT22;5574;48.786;10.120;2022-12-01T09:16:06;4.50;99.90
11043;DHT22;5574;48.786;10.120;2022-12-01T09:18:33;4.50;99.90
11043;DHT22;5574;48.786;10.120;2022-12-01T09:21:09;4.50;99.90
11043;DHT22;5574;48.786;10.120;2022-12-01T09:23:35;4.40;99.90
11043;DHT22;5574;48.786;10.120;2022-12-01T09:26:04;4.40;99.90
11043;DHT22;5574;48.786;10.120;2022-12-01T09:28:31;4.30;99.90
11043;DHT22;5574;48.786;10.120;2022-12-01T09:31:03;4.30;99.90
11043;DHT22;5574;48.786;10.120;2022-12-01T09:33:30;4.30;99.90
11043;DHT22;5574;48.786;10.120;2022-12-01T09:35:57;4.20;99.90
11043;DHT22;5574;48.786;10.120;2022-12-01T09:38:24;4.20;99.90
11043;DHT22;5574;48.786;10.120;2022-12-01T09:40:51;4.20;99.90
11043;DHT22;5574;48.786;10.120;2022-12-01T09:43:21;4.20;99.90
11043;DHT22;5574;48.786;10.120;2022-12-01T09:45:53;4.20;99.90
11043;DHT22;5574;48.786;10.120;2022-12-01T09:48:25;4.20;99.90
11043;DHT22;5574;48.786;10.120;2022-12-01T09:50:52;4.20;99.90
11043;DHT22;5574;48.786;10.120;2022-12-01T09:53:22;4.10;99.90
11043;DHT22;5574;48.786;10.120;2022-12-01T09:55:50;4.10;99.90
11043;DHT22;5574;48.786;10.120;2022-12-01T09:58:18;4.10;99.90
11043;DHT22;5574;48.786;10.120;2022-12-01T10:00:49;4.20;99.90
11043;DHT22;5574;48.786;10.120;2022-12-01T10:03:26;4.30;99.90
11043;DHT22;5574;48.786;10.120;2022-12-01T10:05:55;4.50;99.90
11043;DHT22;5574;48.786;10.120;2022-12-01T10:08:26;4.50;99.90
11043;DHT22;5574;48.786;10.120;2022-12-01T10:10:57;4.60;99.90
11043;DHT22;5574;48.786;10.120;2022-12-01T10:13:27;4.80;99.90
11043;DHT22;5574;48.786;10.120;2022-12-01T10:16:01;4.70;99.90
11043;DHT22;5574;48.786;10.120;2022-12-01T10:18:38;4.80;99.90
11043;DHT22;5574;48.786;10.120;2022-12-01T10:21:12;4.70;99.90
11043;DHT22;5574;48.786;10.120;2022-12-01T10:23:50;4.60;99.90
11043;DHT22;5574;48.786;10.120;2022-12-01T10:26:25;4.60;99.90
11043;DHT22;5574;48.786;10.120;2022-12-01T10:29:09;4.70;99.90
11043;DHT22;5574;48.786;10.120;2022-12-01T10:31:47;4.50;99.90
11043;DHT22;5574;48.786;10.120;2022-12-01T10:34:17;4.50;99.90
11043;DHT22;5574;48.786;10.120;2022-12-01T10:36:46;4.50;99.90
11043;DHT22;5574;48.786;10.120;2022-12-01T10:39:16;4.60;99.90
11043;DHT22;5574;48.786;10.120;2022-12-01T10:41:45;4.60;99.90
11043;DHT22;5574;48.786;10.120;2022-12-01T10:44:13;4.50;99.90
11043;DHT22;5574;48.786;10.120;2022-12-01T10:46:45;4.50;99.90
11043;DHT22;5574;48.786;10.120;2022-12-01T10:49:15;4.50;99.90
11043;DHT22;5574;48.786;10.120;2022-12-01T10:51:48;4.50;99.90
11043;DHT22;5574;48.786;10.120;2022-12-01T10:54:15;4.40;99.90
11043;DHT22;5574;48.786;10.120;2022-12-01T10:56:44;4.40;99.90
11043;DHT22;5574;48.786;10.120;2022-12-01T10:59:24;4.40;99.90
11043;DHT22;5574;48.786;10.120;2022-12-01T11:01:53;4.30;99.90
11043;DHT22;5574;48.786;10.120;2022-12-01T11:04:28;4.40;99.90
11043;DHT22;5574;48.786;10.120;2022-12-01T11:06:56;4.40;99.90
11043;DHT22;5574;48.786;10.120;2022-12-01T11:09:26;4.50;99.90
11043;DHT22;5574;48.786;10.120;2022-12-01T11:11:55;4.50;99.90
11043;DHT22;5574;48.786;10.120;2022-12-01T11:14:31;4.60;99.90
11043;DHT22;5574;48.786;10.120;2022-12-01T11:17:15;4.60;99.90
11043;DHT22;5574;48.786;10.120;2022-12-01T11:19:41;4.60;99.90
11043;DHT22;5574;48.786;10.120;2022-12-01T11:22:18;4.70;99.90
11043;DHT22;5574;48.786;10.120;2022-12-01T11:24:56;4.70;99.90
11043;DHT22;5574;48.786;10.120;2022-12-01T11:27:24;4.60;99.90
11043;DHT22;5574;48.786;10.120;2022-12-01T11:29:54;4.60;99.90
11043;DHT22;5574;48.786;10.120;2022-12-01T11:32:24;4.60;99.90
11043;DHT22;5574;48.786;10.120;2022-12-01T11:34:55;4.60;99.90
11043;DHT22;5574;48.786;10.120;2022-12-01T11:37:28;4.60;99.90
11043;DHT22;5574;48.786;10.120;2022-12-01T11:40:08;4.50;99.90
11043;DHT22;5574;48.786;10.120;2022-12-01T11:42:39;4.50;99.90
11043;DHT22;5574;48.786;10.120;2022-12-01T11:45:17;4.50;99.90
11043;DHT22;5574;48.786;10.120;2022-12-01T11:48:00;4.60;99.90
11043;DHT22;5574;48.786;10.120;2022-12-01T11:50:29;4.70;99.90
11043;DHT22;5574;48.786;10.120;2022-12-01T11:52:56;4.90;99.90
11043;DHT22;5574;48.786;10.120;2022-12-01T11:55:24;5.00;99.90
11043;DHT22;5574;48.786;10.120;2022-12-01T11:57:54;5.10;99.90
11043;DHT22;5574;48.786;10.120;2022-12-01T12:00:24;5.10;99.90
11043;DHT22;5574;48.786;10.120;2022-12-01T12:03:07;5.20;99.90
11043;DHT22;5574;48.786;10.120;2022-12-01T12:05:47;5.10;99.90
11043;DHT22;5574;48.786;10.120;2022-12-01T12:08:28;5.00;99.90
11043;DHT22;5574;48.786;10.120;2022-12-01T12:11:05;4.90;99.90
11043;DHT22;5574;48.786;10.120;2022-12-01T12:13:49;4.90;99.90
11043;DHT22;5574;48.786;10.120;2022-12-01T12:16:26;4.90;99.90
11043;DHT22;5574;48.786;10.120;2022-12-01T12:19:06;4.90;99.90
11043;DHT22;5574;48.786;10.120;2022-12-01T12:21:42;4.80;99.90
11043;DHT22;5574;48.786;10.120;2022-12-01T12:24:27;4.80;99.90
11043;DHT22;5574;48.786;10.120;2022-12-01T12:27:02;4.70;99.90
11043;DHT22;5574;48.786;10.120;2022-12-01T12:29:50;4.70;99.90
11043;DHT22;5574;48.786;10.120;2022-12-01T12:32:45;4.80;99.90
11043;DHT22;5574;48.786;10.120;2022-12-01T12:35:24;4.90;99.90
11043;DHT22;5574;48.786;10.120;2022-12-01T12:38:01;4.90;99.90
11043;DHT22;5574;48.786;10.120;2022-12-01T12:40:37;4.90;99.90
11043;DHT22;5574;48.786;10.120;2022-12-01T12:43:24;4.90;99.90
11043;DHT22;5574;48.786;10.120;2022-12-01T12:46:00;5.00;99.90
11043;DHT22;5574;48.786;10.120;2022-12-01T12:48:44;4.90;99.90
11043;DHT22;5574;48.786;10.120;2022-12-01T12:51:19;4.90;99.90
11043;DHT22;5574;48.786;10.120;2022-12-01T12:53:51;5.00;99.90
11043;DHT22;5574;48.786;10.120;2022-12-01T12:56:23;4.90;99.90
11043;DHT22;5574;48.786;10.120;2022-12-01T12:58:55;4.90;99.90
11043;DHT22;5574;48.786;10.120;2022-12-01T13:01:25;5.00;99.90
11043;DHT22;5574;48.786;10.120;2022-12-01T13:03:56;4.90;99.90
11043;DHT22;5574;48.786;10.120;2022-12-01T13:06:31;4.90;99.90
11043;DHT22;5574;48.786;10.120;2022-12-01T13:09:01;5.10;99.90
11043;DHT22;5574;48.786;10.120;2022-12-01T13:11:33;5.00;99.90
11043;DHT22;5574;48.786;10.120;2022-12-01T13:14:06;5.00;99.90
11043;DHT22;5574;48.786;10.120;2022-12-01T13:16:39;5.10;99.90
11043;DHT22;5574;48.786;10.120;2022-12-01T13:19:11;5.10;99.90
11043;DHT22;5574;48.786;10.120;2022-12-01T13:21:43;5.00;99.90
11043;DHT22;5574;48.786;10.120;2022-12-01T13:24:12;5.00;99.90
11043;DHT22;5574;48.786;10.120;2022-12-01T13:26:43;5.00;99.90
11043;DHT22;5574;48.786;10.120;2022-12-01T13:29:15;5.00;99.90
11043;DHT22;5574;48.786;10.120;2022-12-01T13:31:44;5.10;99.90
11043;DHT22;5574;48.786;10.120;2022-12-01T13:34:19;5.00;99.90
11043;DHT22;5574;48.786;10.120;2022-12-01T13:36:50;5.10;99.90
11043;DHT22;5574;48.786;10.120;2022-12-01T13:39:19;5.20;99.90
11043;DHT22;5574;48.786;10.120;2022-12-01T13:41:59;5.10;99.90
11043;DHT22;5574;48.786;10.120;2022-12-01T13:44:30;5.10;99.90
11043;DHT22;5574;48.786;10.120;2022-12-01T13:47:03;5.10;99.90
11043;DHT22;5574;48.786;10.120;2022-12-01T13:49:38;5.00;99.90
11043;DHT22;5574;48.786;10.120;2022-12-01T13:52:32;5.10;99.90
11043;DHT22;5574;48.786;10.120;2022-12-01T13:55:26;5.00;99.90
11043;DHT22;5574;48.786;10.120;2022-12-01T13:58:40;5.10;99.90
11043;DHT22;5574;48.786;10.120;2022-12-01T14:01:45;5.10;99.90
11043;DHT22;5574;48.786;10.120;2022-12-01T14:04:27;5.00;99.90
11043;DHT22;5574;48.786;10.120;2022-12-01T14:07:33;5.10;99.90
11043;DHT22;5574;48.786;10.120;2022-12-01T14:12:52;5.00;99.90
11043;DHT22;5574;48.786;10.120;2022-12-01T14:15:26;5.00;99.90
11043;DHT22;5574;48.786;10.120;2022-12-01T14:25:56;4.90;99.90
11043;DHT22;5574;48.786;10.120;2022-12-01T14:35:02;4.80;99.90
11043;DHT22;5574;48.786;10.120;2022-12-01T14:55:40;4.80;99.90
11043;DHT22;5574;48.786;10.120;2022-12-01T14:58:13;4.80;99.90
11043;DHT22;5574;48.786;10.120;2022-12-01T15:01:02;4.80;99.90
11043;DHT22;5574;48.786;10.120;2022-12-01T15:03:34;4.80;99.90
11043;DHT22;5574;48.786;10.120;2022-12-01T15:06:01;4.80;99.90
11043;DHT22;5574;48.786;10.120;2022-12-01T15:08:30;4.80;99.90
11043;DHT22;5574;48.786;10.120;2022-12-01T15:11:00;4.80;99.90
11043;DHT22;5574;48.786;10.120;2022-12-01T15:13:28;4.80;99.90
11043;DHT22;5574;48.786;10.120;2022-12-01T15:15:57;4.80;99.90
11043;DHT22;5574;48.786;10.120;2022-12-01T15:18:28;4.90;99.90
11043;DHT22;5574;48.786;10.120;2022-12-01T15:20:59;4.80;99.90
11043;DHT22;5574;48.786;10.120;2022-12-01T15:23:26;4.80;99.90
11043;DHT22;5574;48.786;10.120;2022-12-01T15:33:45;4.90;99.90
11043;DHT22;5574;48.786;10.120;2022-12-01T15:36:13;4.90;99.90
11043;DHT22;5574;48.786;10.120;2022-12-01T15:38:41;4.90;99.90
11043;DHT22;5574;48.786;10.120;2022-12-01T15:41:15;4.90;99.90
11043;DHT22;5574;48.786;10.120;2022-12-01T15:43:42;4.90;99.90
11043;DHT22;5574;48.786;10.120;2022-12-01T15:52:21;4.90;99.90
11043;DHT22;5574;48.786;10.120;2022-12-01T15:54:48;5.00;99.90
11043;DHT22;5574;48.786;10.120;2022-12-01T16:12:22;5.00;99.90
11043;DHT22;5574;48.786;10.120;2022-12-01T16:14:52;5.00;99.90
11043;DHT22;5574;48.786;10.120;2022-12-01T16:17:20;5.00;99.90
11043;DHT22;5574;48.786;10.120;2022-12-01T16:19:47;5.00;99.90
11043;DHT22;5574;48.786;10.120;2022-12-01T16:22:16;4.90;99.90
11043;DHT22;5574;48.786;10.120;2022-12-01T16:24:46;4.90;99.90
11043;DHT22;5574;48.786;10.120;2022-12-01T16:38:29;4.80;99.90
11043;DHT22;5574;48.786;10.120;2022-12-01T16:40:59;4.80;99.90
11043;DHT22;5574;48.786;10.120;2022-12-01T16:43:27;4.70;99.90
11043;DHT22;5574;48.786;10.120;2022-12-01T16:45:57;4.70;99.90
11043;DHT22;5574;48.786;10.120;2022-12-01T16:48:24;4.70;99.90
11043;DHT22;5574;48.786;10.120;2022-12-01T16:50:52;4.70;99.90
11043;DHT22;5574;48.786;10.120;2022-12-01T16:53:19;4.70;99.90
11043;DHT22;5574;48.786;10.120;2022-12-01T16:55:50;4.70;99.90
11043;DHT22;5574;48.786;10.120;2022-12-01T16:58:17;4.60;99.90
11043;DHT22;5574;48.786;10.120;2022-12-01T17:00:44;4.70;99.90
11043;DHT22;5574;48.786;10.120;2022-12-01T17:03:17;4.70;99.90
11043;DHT22;5574;48.786;10.120;2022-12-01T17:10:47;4.70;99.90
11043;DHT22;5574;48.786;10.120;2022-12-01T17:13:15;4.70;99.90
11043;DHT22;5574;48.786;10.120;2022-12-01T17:15:42;4.70;99.90
11043;DHT22;5574;48.786;10.120;2022-12-01T17:18:10;4.70;99.90
11043;DHT22;5574;48.786;10.120;2022-12-01T17:20:37;4.60;99.90
11043;DHT22;5574;48.786;10.120;2022-12-01T17:23:04;4.60;99.90
11043;DHT22;5574;48.786;10.120;2022-12-01T17:25:31;4.60;99.90
11043;DHT22;5574;48.786;10.120;2022-12-01T17:33:19;4.50;99.90
11043;DHT22;5574;48.786;10.120;2022-12-01T17:56:54;4.60;99.90
11043;DHT22;5574;48.786;10.120;2022-12-01T17:59:27;4.60;99.90